sensor_id;sensor_type;location;lat;lon;timestamp;temperature;humidity
31038;DHT22;17702;47.590;7.666;2022-12-07T00:02:21;6.50;99.90
31038;DHT22;17702;47.590;7.666;2022-12-07T00:04:48;6.40;99.90
31038;DHT22;17702;47.590;7.666;2022-12-07T00:07:14;6.40;99.90
31038;DHT22;17702;47.590;7.666;2022-12-07T00:09:39;6.50;99.90
31038;DHT22;17702;47.590;7.666;2022-12-07T00:12:06;6.50;99.90
31038;DHT22;17702;47.590;7.666;2022-12-07T00:14:32;6.50;99.90
31038;DHT22;17702;47.590;7.666;2022-12-07T00:16:57;6.40;99.90
31038;DHT22;17702;47.590;7.666;2022-12-07T00:19:23;6.50;99.90
31038;DHT22;17702;47.590;7.666;2022-12-07T00:21:48;6.50;99.90
31038;DHT22;17702;47.590;7.666;2022-12-07T00:24:14;6.40;99.90
31038;DHT22;17702;47.590;7.666;2022-12-07T00:26:40;6.40;99.90
31038;DHT22;17702;47.590;7.666;2022-12-07T00:29:07;6.40;99.90
31038;DHT22;17702;47.590;7.666;2022-12-07T00:31:34;6.40;99.90
31038;DHT22;17702;47.590;7.666;2022-12-07T00:34:04;6.40;99.90
31038;DHT22;17702;47.590;7.666;2022-12-07T00:36:29;6.30;99.90
31038;DHT22;17702;47.590;7.666;2022-12-07T00:38:59;6.30;99.90
31038;DHT22;17702;47.590;7.666;2022-12-07T00:41:25;6.30;99.90
31038;DHT22;17702;47.590;7.666;2022-12-07T00:43:51;6.30;99.90
31038;DHT22;17702;47.590;7.666;2022-12-07T00:46:17;6.20;99.90
31038;DHT22;17702;47.590;7.666;2022-12-07T00:48:42;6.30;99.90
31038;DHT22;17702;47.590;7.666;2022-12-07T00:51:08;6.30;99.90
31038;DHT22;17702;47.590;7.666;2022-12-07T00:53:34;6.30;99.90
31038;DHT22;17702;47.590;7.666;2022-12-07T00:56:17;6.30;99.90
31038;DHT22;17702;47.590;7.666;2022-12-07T00:58:42;6.20;99.90
31038;DHT22;17702;47.590;7.666;2022-12-07T01:01:08;6.20;99.90
31038;DHT22;17702;47.590;7.666;2022-12-07T01:03:34;6.10;99.90
31038;DHT22;17702;47.590;7.666;2022-12-07T01:06:00;6.10;99.90
31038;DHT22;17702;47.590;7.666;2022-12-07T01:08:26;6.10;99.90
31038;DHT22;17702;47.590;7.666;2022-12-07T01:11:26;6.20;99.90
31038;DHT22;17702;47.590;7.666;2022-12-07T01:13:44;6.20;99.90
31038;DHT22;17702;47.590;7.666;2022-12-07T01:16:10;6.20;99.90
31038;DHT22;17702;47.590;7.666;2022-12-07T01:18:36;6.20;99.90
31038;DHT22;17702;47.590;7.666;2022-12-07T01:21:15;6.20;99.90
31038;DHT22;17702;47.590;7.666;2022-12-07T01:23:41;6.20;99.90
31038;DHT22;17702;47.590;7.666;2022-12-07T01:26:09;6.20;99.90
31038;DHT22;17702;47.590;7.666;2022-12-07T01:28:35;6.20;99.90
31038;DHT22;17702;47.590;7.666;2022-12-07T01:31:02;6.10;99.90
31038;DHT22;17702;47.590;7.666;2022-12-07T01:33:28;6.10;99.90
31038;DHT22;17702;47.590;7.666;2022-12-07T01:36:00;6.00;99.90
31038;DHT22;17702;47.590;7.666;2022-12-07T01:38:25;6.00;99.90
31038;DHT22;17702;47.590;7.666;2022-12-07T01:40:54;6.10;99.90
31038;DHT22;17702;47.590;7.666;2022-12-07T01:43:20;6.10;99.90
31038;DHT22;17702;47.590;7.666;2022-12-07T01:45:46;6.10;99.90
31038;DHT22;17702;47.590;7.666;2022-12-07T01:48:12;6.10;99.90
31038;DHT22;17702;47.590;7.666;2022-12-07T01:50:40;6.10;99.90
31038;DHT22;17702;47.590;7.666;2022-12-07T01:53:06;6.10;99.90
31038;DHT22;17702;47.590;7.666;2022-12-07T01:55:33;6.00;99.90
31038;DHT22;17702;47.590;7.666;2022-12-07T01:58:00;6.00;99.90
31038;DHT22;17702;47.590;7.666;2022-12-07T02:00:25;6.10;99.90
31038;DHT22;17702;47.590;7.666;2022-12-07T02:02:55;6.00;99.90
31038;DHT22;17702;47.590;7.666;2022-12-07T02:05:22;6.00;99.90
31038;DHT22;17702;47.590;7.666;2022-12-07T02:07:49;6.00;99.90
31038;DHT22;17702;47.590;7.666;2022-12-07T02:10:17;6.00;99.90
31038;DHT22;17702;47.590;7.666;2022-12-07T02:12:47;5.90;99.90
31038;DHT22;17702;47.590;7.666;2022-12-07T02:15:13;5.90;99.90
31038;DHT22;17702;47.590;7.666;2022-12-07T02:17:42;6.00;99.90
31038;DHT22;17702;47.590;7.666;2022-12-07T02:20:21;6.00;99.90
31038;DHT22;17702;47.590;7.666;2022-12-07T02:23:00;6.00;99.90
31038;DHT22;17702;47.590;7.666;2022-12-07T02:28:19;6.10;99.90
31038;DHT22;17702;47.590;7.666;2022-12-07T02:30:47;6.00;99.90
31038;DHT22;17702;47.590;7.666;2022-12-07T02:33:23;6.00;99.90
31038;DHT22;17702;47.590;7.666;2022-12-07T02:36:00;6.00;99.90
31038;DHT22;17702;47.590;7.666;2022-12-07T02:41:01;6.00;99.90
31038;DHT22;17702;47.590;7.666;2022-12-07T02:43:30;6.00;99.90
31038;DHT22;17702;47.590;7.666;2022-12-07T02:46:13;6.10;99.90
31038;DHT22;17702;47.590;7.666;2022-12-07T02:48:40;6.10;99.90
31038;DHT22;17702;47.590;7.666;2022-12-07T02:51:06;6.10;99.90
31038;DHT22;17702;47.590;7.666;2022-12-07T02:56:44;6.10;99.90
31038;DHT22;17702;47.590;7.666;2022-12-07T03:06:43;6.10;99.90
31038;DHT22;17702;47.590;7.666;2022-12-07T03:09:17;6.10;99.90
31038;DHT22;17702;47.590;7.666;2022-12-07T03:11:47;6.10;99.90
31038;DHT22;17702;47.590;7.666;2022-12-07T03:14:15;6.10;99.90
31038;DHT22;17702;47.590;7.666;2022-12-07T03:17:16;6.20;99.90
31038;DHT22;17702;47.590;7.666;2022-12-07T03:19:34;6.20;99.90
31038;DHT22;17702;47.590;7.666;2022-12-07T03:22:02;6.10;99.90
31038;DHT22;17702;47.590;7.666;2022-12-07T03:24:30;6.00;99.90
31038;DHT22;17702;47.590;7.666;2022-12-07T03:27:01;6.00;99.90
31038;DHT22;17702;47.590;7.666;2022-12-07T03:29:30;5.90;99.90
31038;DHT22;17702;47.590;7.666;2022-12-07T03:32:05;5.90;99.90
31038;DHT22;17702;47.590;7.666;2022-12-07T03:34:36;5.90;99.90
31038;DHT22;17702;47.590;7.666;2022-12-07T03:37:04;6.00;99.90
31038;DHT22;17702;47.590;7.666;2022-12-07T03:39:35;6.10;99.90
31038;DHT22;17702;47.590;7.666;2022-12-07T03:42:02;6.00;99.90
31038;DHT22;17702;47.590;7.666;2022-12-07T03:44:30;6.00;99.90
31038;DHT22;17702;47.590;7.666;2022-12-07T03:49:32;6.00;99.90
31038;DHT22;17702;47.590;7.666;2022-12-07T03:52:12;5.90;99.90
31038;DHT22;17702;47.590;7.666;2022-12-07T03:57:47;5.90;99.90
31038;DHT22;17702;47.590;7.666;2022-12-07T04:00:15;6.00;99.90
31038;DHT22;17702;47.590;7.666;2022-12-07T04:02:40;6.00;99.90
31038;DHT22;17702;47.590;7.666;2022-12-07T04:05:07;6.00;99.90
31038;DHT22;17702;47.590;7.666;2022-12-07T04:07:32;6.00;99.90
31038;DHT22;17702;47.590;7.666;2022-12-07T04:09:58;6.00;99.90
31038;DHT22;17702;47.590;7.666;2022-12-07T04:12:23;6.00;99.90
31038;DHT22;17702;47.590;7.666;2022-12-07T04:14:49;6.00;99.90
31038;DHT22;17702;47.590;7.666;2022-12-07T04:17:14;6.00;99.90
31038;DHT22;17702;47.590;7.666;2022-12-07T04:19:40;6.00;99.90
31038;DHT22;17702;47.590;7.666;2022-12-07T04:22:06;6.10;99.90
31038;DHT22;17702;47.590;7.666;2022-12-07T04:24:32;6.00;99.90
31038;DHT22;17702;47.590;7.666;2022-12-07T04:26:57;6.00;99.90
31038;DHT22;17702;47.590;7.666;2022-12-07T04:29:23;6.10;99.90
31038;DHT22;17702;47.590;7.666;2022-12-07T04:31:49;6.10;99.90
31038;DHT22;17702;47.590;7.666;2022-12-07T04:34:14;6.10;99.90
31038;DHT22;17702;47.590;7.666;2022-12-07T04:36:40;6.10;99.90
31038;DHT22;17702;47.590;7.666;2022-12-07T04:39:07;6.00;99.90
31038;DHT22;17702;47.590;7.666;2022-12-07T04:41:32;6.00;99.90
31038;DHT22;17702;47.590;7.666;2022-12-07T04:43:59;6.00;99.90
31038;DHT22;17702;47.590;7.666;2022-12-07T04:46:25;6.10;99.90
31038;DHT22;17702;47.590;7.666;2022-12-07T04:48:51;6.00;99.90
31038;DHT22;17702;47.590;7.666;2022-12-07T04:51:23;6.00;99.90
31038;DHT22;17702;47.590;7.666;2022-12-07T04:53:49;6.00;99.90
31038;DHT22;17702;47.590;7.666;2022-12-07T04:56:15;6.00;99.90
31038;DHT22;17702;47.590;7.666;2022-12-07T04:58:41;6.00;99.90
31038;DHT22;17702;47.590;7.666;2022-12-07T05:01:06;6.10;99.90
31038;DHT22;17702;47.590;7.666;2022-12-07T05:03:32;6.10;99.90
31038;DHT22;17702;47.590;7.666;2022-12-07T05:05:57;6.10;99.90
31038;DHT22;17702;47.590;7.666;2022-12-07T05:08:23;6.00;99.90
31038;DHT22;17702;47.590;7.666;2022-12-07T05:10:49;6.10;99.90
31038;DHT22;17702;47.590;7.666;2022-12-07T05:13:14;6.10;99.90
31038;DHT22;17702;47.590;7.666;2022-12-07T05:15:40;6.10;99.90
31038;DHT22;17702;47.590;7.666;2022-12-07T05:18:06;6.00;99.90
31038;DHT22;17702;47.590;7.666;2022-12-07T05:20:31;6.00;99.90
31038;DHT22;17702;47.590;7.666;2022-12-07T05:22:57;5.90;99.90
31038;DHT22;17702;47.590;7.666;2022-12-07T05:25:23;5.90;99.90
31038;DHT22;17702;47.590;7.666;2022-12-07T05:27:49;5.90;99.90
31038;DHT22;17702;47.590;7.666;2022-12-07T05:30:14;6.00;99.90
31038;DHT22;17702;47.590;7.666;2022-12-07T05:32:40;5.90;99.90
31038;DHT22;17702;47.590;7.666;2022-12-07T05:35:05;6.00;99.90
31038;DHT22;17702;47.590;7.666;2022-12-07T05:37:31;6.00;99.90
31038;DHT22;17702;47.590;7.666;2022-12-07T05:39:57;6.00;99.90
31038;DHT22;17702;47.590;7.666;2022-12-07T05:42:22;6.00;99.90
31038;DHT22;17702;47.590;7.666;2022-12-07T05:44:48;5.90;99.90
31038;DHT22;17702;47.590;7.666;2022-12-07T05:47:14;5.90;99.90
31038;DHT22;17702;47.590;7.666;2022-12-07T05:49:40;5.80;99.90
31038;DHT22;17702;47.590;7.666;2022-12-07T05:52:05;5.80;99.90
31038;DHT22;17702;47.590;7.666;2022-12-07T05:54:31;5.70;99.90
31038;DHT22;17702;47.590;7.666;2022-12-07T05:56:57;5.80;99.90
31038;DHT22;17702;47.590;7.666;2022-12-07T05:59:22;5.80;99.90
31038;DHT22;17702;47.590;7.666;2022-12-07T06:02:04;5.90;99.90
31038;DHT22;17702;47.590;7.666;2022-12-07T06:04:32;5.90;99.90
31038;DHT22;17702;47.590;7.666;2022-12-07T06:06:58;5.90;99.90
31038;DHT22;17702;47.590;7.666;2022-12-07T06:09:24;5.80;99.90
31038;DHT22;17702;47.590;7.666;2022-12-07T06:11:50;5.80;99.90
31038;DHT22;17702;47.590;7.666;2022-12-07T06:14:34;5.80;99.90
31038;DHT22;17702;47.590;7.666;2022-12-07T06:17:00;5.80;99.90
31038;DHT22;17702;47.590;7.666;2022-12-07T06:19:25;5.80;99.90
31038;DHT22;17702;47.590;7.666;2022-12-07T06:21:54;5.80;99.90
31038;DHT22;17702;47.590;7.666;2022-12-07T06:24:19;5.90;99.90
31038;DHT22;17702;47.590;7.666;2022-12-07T06:26:45;5.80;99.90
31038;DHT22;17702;47.590;7.666;2022-12-07T06:29:11;5.80;99.90
31038;DHT22;17702;47.590;7.666;2022-12-07T06:31:37;5.80;99.90
31038;DHT22;17702;47.590;7.666;2022-12-07T06:34:06;5.70;99.90
31038;DHT22;17702;47.590;7.666;2022-12-07T06:36:32;5.80;99.90
31038;DHT22;17702;47.590;7.666;2022-12-07T06:38:58;5.80;99.90
31038;DHT22;17702;47.590;7.666;2022-12-07T06:41:23;5.80;99.90
31038;DHT22;17702;47.590;7.666;2022-12-07T06:43:49;7.80;99.90
31038;DHT22;17702;47.590;7.666;2022-12-07T06:46:15;10.30;99.90
31038;DHT22;17702;47.590;7.666;2022-12-07T06:48:40;12.60;96.60
31038;DHT22;17702;47.590;7.666;2022-12-07T06:51:06;14.00;90.40
31038;DHT22;17702;47.590;7.666;2022-12-07T06:53:32;15.00;76.10
31038;DHT22;17702;47.590;7.666;2022-12-07T06:55:57;15.70;68.10
31038;DHT22;17702;47.590;7.666;2022-12-07T06:58:23;15.70;56.60
31038;DHT22;17702;47.590;7.666;2022-12-07T07:00:48;13.10;63.80
31038;DHT22;17702;47.590;7.666;2022-12-07T07:03:15;10.80;73.70
31038;DHT22;17702;47.590;7.666;2022-12-07T07:05:41;9.10;86.20
31038;DHT22;17702;47.590;7.666;2022-12-07T07:08:07;7.90;92.90
31038;DHT22;17702;47.590;7.666;2022-12-07T07:10:32;7.30;95.20
31038;DHT22;17702;47.590;7.666;2022-12-07T07:12:57;6.80;96.90
31038;DHT22;17702;47.590;7.666;2022-12-07T07:15:23;6.50;98.40
31038;DHT22;17702;47.590;7.666;2022-12-07T07:17:49;6.00;99.90
31038;DHT22;17702;47.590;7.666;2022-12-07T07:20:14;5.70;99.90
31038;DHT22;17702;47.590;7.666;2022-12-07T07:22:40;5.60;99.90
31038;DHT22;17702;47.590;7.666;2022-12-07T07:25:06;5.60;99.90
31038;DHT22;17702;47.590;7.666;2022-12-07T07:27:31;5.60;99.90
31038;DHT22;17702;47.590;7.666;2022-12-07T07:29:57;5.50;99.90
31038;DHT22;17702;47.590;7.666;2022-12-07T07:32:22;5.40;99.90
31038;DHT22;17702;47.590;7.666;2022-12-07T07:34:48;5.40;99.90
31038;DHT22;17702;47.590;7.666;2022-12-07T07:37:13;5.40;99.90
31038;DHT22;17702;47.590;7.666;2022-12-07T07:39:39;5.30;99.90
31038;DHT22;17702;47.590;7.666;2022-12-07T07:42:05;5.20;99.90
31038;DHT22;17702;47.590;7.666;2022-12-07T07:44:30;5.00;99.90
31038;DHT22;17702;47.590;7.666;2022-12-07T07:46:56;5.00;99.90
31038;DHT22;17702;47.590;7.666;2022-12-07T07:49:21;5.00;99.90
31038;DHT22;17702;47.590;7.666;2022-12-07T07:51:47;5.00;99.90
31038;DHT22;17702;47.590;7.666;2022-12-07T07:54:12;5.00;99.90
31038;DHT22;17702;47.590;7.666;2022-12-07T07:56:38;5.00;99.90
31038;DHT22;17702;47.590;7.666;2022-12-07T07:59:03;4.90;99.90
31038;DHT22;17702;47.590;7.666;2022-12-07T08:01:29;5.00;99.90
31038;DHT22;17702;47.590;7.666;2022-12-07T08:03:54;5.10;99.90
31038;DHT22;17702;47.590;7.666;2022-12-07T08:06:20;5.20;99.90
31038;DHT22;17702;47.590;7.666;2022-12-07T08:08:45;5.20;99.90
31038;DHT22;17702;47.590;7.666;2022-12-07T08:11:11;5.30;99.90
31038;DHT22;17702;47.590;7.666;2022-12-07T08:13:36;5.30;99.90
31038;DHT22;17702;47.590;7.666;2022-12-07T08:16:05;5.30;99.90
31038;DHT22;17702;47.590;7.666;2022-12-07T08:18:34;5.30;99.90
31038;DHT22;17702;47.590;7.666;2022-12-07T08:21:00;5.40;99.90
31038;DHT22;17702;47.590;7.666;2022-12-07T08:23:29;5.50;99.90
31038;DHT22;17702;47.590;7.666;2022-12-07T08:25:54;5.40;99.90
31038;DHT22;17702;47.590;7.666;2022-12-07T08:28:20;5.50;99.90
31038;DHT22;17702;47.590;7.666;2022-12-07T08:30:46;5.50;99.90
31038;DHT22;17702;47.590;7.666;2022-12-07T08:33:11;5.50;99.90
31038;DHT22;17702;47.590;7.666;2022-12-07T08:35:37;5.50;99.90
31038;DHT22;17702;47.590;7.666;2022-12-07T08:38:02;5.60;99.90
31038;DHT22;17702;47.590;7.666;2022-12-07T08:40:29;5.80;99.90
31038;DHT22;17702;47.590;7.666;2022-12-07T08:42:54;5.70;99.90
31038;DHT22;17702;47.590;7.666;2022-12-07T08:45:20;5.80;99.90
31038;DHT22;17702;47.590;7.666;2022-12-07T08:50:15;5.90;99.90
31038;DHT22;17702;47.590;7.666;2022-12-07T08:52:41;5.90;99.90
31038;DHT22;17702;47.590;7.666;2022-12-07T08:55:07;5.90;99.90
31038;DHT22;17702;47.590;7.666;2022-12-07T08:57:34;5.90;99.90
31038;DHT22;17702;47.590;7.666;2022-12-07T09:00:00;5.90;99.90
31038;DHT22;17702;47.590;7.666;2022-12-07T09:02:26;5.90;99.90
31038;DHT22;17702;47.590;7.666;2022-12-07T09:04:51;5.90;99.90
31038;DHT22;17702;47.590;7.666;2022-12-07T09:07:17;5.90;99.90
31038;DHT22;17702;47.590;7.666;2022-12-07T09:09:42;6.00;99.90
31038;DHT22;17702;47.590;7.666;2022-12-07T09:12:08;6.00;99.90
31038;DHT22;17702;47.590;7.666;2022-12-07T09:14:34;6.00;99.90
31038;DHT22;17702;47.590;7.666;2022-12-07T09:17:09;6.10;99.90
31038;DHT22;17702;47.590;7.666;2022-12-07T09:19:35;6.10;99.90
31038;DHT22;17702;47.590;7.666;2022-12-07T09:22:01;6.10;99.90
31038;DHT22;17702;47.590;7.666;2022-12-07T09:24:26;6.10;99.90
31038;DHT22;17702;47.590;7.666;2022-12-07T09:26:52;6.00;99.90
31038;DHT22;17702;47.590;7.666;2022-12-07T09:29:18;6.00;99.90
31038;DHT22;17702;47.590;7.666;2022-12-07T09:31:43;6.00;99.90
31038;DHT22;17702;47.590;7.666;2022-12-07T09:34:12;6.00;99.90
31038;DHT22;17702;47.590;7.666;2022-12-07T09:36:37;5.80;99.90
31038;DHT22;17702;47.590;7.666;2022-12-07T09:39:03;5.80;99.90
31038;DHT22;17702;47.590;7.666;2022-12-07T09:41:30;5.90;99.90
31038;DHT22;17702;47.590;7.666;2022-12-07T09:44:18;5.90;99.90
31038;DHT22;17702;47.590;7.666;2022-12-07T09:46:42;5.80;99.90
31038;DHT22;17702;47.590;7.666;2022-12-07T09:49:11;5.90;99.90
31038;DHT22;17702;47.590;7.666;2022-12-07T09:51:38;6.00;99.90
31038;DHT22;17702;47.590;7.666;2022-12-07T09:54:03;6.10;99.90
31038;DHT22;17702;47.590;7.666;2022-12-07T09:56:29;6.10;99.90
31038;DHT22;17702;47.590;7.666;2022-12-07T09:58:59;6.10;99.90
31038;DHT22;17702;47.590;7.666;2022-12-07T10:01:27;6.00;99.90
31038;DHT22;17702;47.590;7.666;2022-12-07T10:03:54;6.00;99.50
31038;DHT22;17702;47.590;7.666;2022-12-07T10:06:21;6.00;99.90
31038;DHT22;17702;47.590;7.666;2022-12-07T10:08:46;6.00;99.90
31038;DHT22;17702;47.590;7.666;2022-12-07T10:11:15;6.10;99.90
31038;DHT22;17702;47.590;7.666;2022-12-07T10:13:48;6.20;99.50
31038;DHT22;17702;47.590;7.666;2022-12-07T10:18:57;6.20;99.60
31038;DHT22;17702;47.590;7.666;2022-12-07T10:21:41;6.20;99.60
31038;DHT22;17702;47.590;7.666;2022-12-07T10:24:24;6.20;99.90
31038;DHT22;17702;47.590;7.666;2022-12-07T10:26:52;6.20;99.90
31038;DHT22;17702;47.590;7.666;2022-12-07T10:29:34;6.20;99.90
31038;DHT22;17702;47.590;7.666;2022-12-07T10:32:02;6.20;99.80
31038;DHT22;17702;47.590;7.666;2022-12-07T10:34:30;6.20;99.90
31038;DHT22;17702;47.590;7.666;2022-12-07T10:39:47;6.30;99.90
31038;DHT22;17702;47.590;7.666;2022-12-07T10:42:31;6.40;99.30
31038;DHT22;17702;47.590;7.666;2022-12-07T10:45:12;6.50;99.80
31038;DHT22;17702;47.590;7.666;2022-12-07T10:55:22;7.20;96.60
31038;DHT22;17702;47.590;7.666;2022-12-07T11:00:25;7.10;96.60
31038;DHT22;17702;47.590;7.666;2022-12-07T11:05:45;7.00;98.00
31038;DHT22;17702;47.590;7.666;2022-12-07T11:13:25;6.80;97.80
31038;DHT22;17702;47.590;7.666;2022-12-07T11:18:26;6.80;99.00
31038;DHT22;17702;47.590;7.666;2022-12-07T11:20:54;6.80;98.80
31038;DHT22;17702;47.590;7.666;2022-12-07T11:36:30;7.10;96.40
31038;DHT22;17702;47.590;7.666;2022-12-07T11:39:02;7.20;96.40
31038;DHT22;17702;47.590;7.666;2022-12-07T11:41:32;7.20;96.00
31038;DHT22;17702;47.590;7.666;2022-12-07T11:44:07;7.10;96.70
31038;DHT22;17702;47.590;7.666;2022-12-07T11:46:41;7.20;95.40
31038;DHT22;17702;47.590;7.666;2022-12-07T11:49:12;7.20;95.10
31038;DHT22;17702;47.590;7.666;2022-12-07T11:51:40;7.30;95.40
31038;DHT22;17702;47.590;7.666;2022-12-07T11:54:12;7.30;96.10
31038;DHT22;17702;47.590;7.666;2022-12-07T11:56:39;7.30;95.30
31038;DHT22;17702;47.590;7.666;2022-12-07T12:01:52;7.30;95.20
31038;DHT22;17702;47.590;7.666;2022-12-07T12:04:29;7.40;95.20
31038;DHT22;17702;47.590;7.666;2022-12-07T12:06:56;7.40;94.80
31038;DHT22;17702;47.590;7.666;2022-12-07T12:09:24;7.30;95.10
31038;DHT22;17702;47.590;7.666;2022-12-07T12:17:27;7.50;94.50
31038;DHT22;17702;47.590;7.666;2022-12-07T12:20:17;7.50;93.00
31038;DHT22;17702;47.590;7.666;2022-12-07T12:23:00;7.50;93.00
31038;DHT22;17702;47.590;7.666;2022-12-07T12:25:31;7.40;92.90
31038;DHT22;17702;47.590;7.666;2022-12-07T12:28:00;7.40;93.40
31038;DHT22;17702;47.590;7.666;2022-12-07T12:30:49;7.30;93.50
31038;DHT22;17702;47.590;7.666;2022-12-07T12:35:37;7.20;94.40
31038;DHT22;17702;47.590;7.666;2022-12-07T12:40:41;7.40;93.20
31038;DHT22;17702;47.590;7.666;2022-12-07T12:43:38;7.60;93.40
31038;DHT22;17702;47.590;7.666;2022-12-07T12:46:17;7.70;92.90
31038;DHT22;17702;47.590;7.666;2022-12-07T12:48:38;7.80;93.30
31038;DHT22;17702;47.590;7.666;2022-12-07T12:51:35;7.80;92.50
31038;DHT22;17702;47.590;7.666;2022-12-07T12:53:51;7.90;92.80
31038;DHT22;17702;47.590;7.666;2022-12-07T12:56:23;8.10;91.90
31038;DHT22;17702;47.590;7.666;2022-12-07T13:01:39;8.30;91.10
31038;DHT22;17702;47.590;7.666;2022-12-07T13:04:17;8.40;90.30
31038;DHT22;17702;47.590;7.666;2022-12-07T13:06:43;8.40;89.80
31038;DHT22;17702;47.590;7.666;2022-12-07T13:09:19;8.50;90.50
31038;DHT22;17702;47.590;7.666;2022-12-07T13:11:47;8.30;90.20
31038;DHT22;17702;47.590;7.666;2022-12-07T13:16:57;8.20;90.60
31038;DHT22;17702;47.590;7.666;2022-12-07T13:24:54;8.20;91.80
31038;DHT22;17702;47.590;7.666;2022-12-07T13:27:19;8.20;91.10
31038;DHT22;17702;47.590;7.666;2022-12-07T13:29:46;8.20;90.30
31038;DHT22;17702;47.590;7.666;2022-12-07T13:32:25;8.20;90.40
31038;DHT22;17702;47.590;7.666;2022-12-07T13:34:51;8.30;90.70
31038;DHT22;17702;47.590;7.666;2022-12-07T13:37:20;8.30;88.50
31038;DHT22;17702;47.590;7.666;2022-12-07T13:39:54;8.20;90.40
31038;DHT22;17702;47.590;7.666;2022-12-07T13:44:51;8.20;88.60
31038;DHT22;17702;47.590;7.666;2022-12-07T13:47:19;8.20;88.80
31038;DHT22;17702;47.590;7.666;2022-12-07T13:49:50;8.20;89.90
31038;DHT22;17702;47.590;7.666;2022-12-07T13:54:48;8.10;90.70
31038;DHT22;17702;47.590;7.666;2022-12-07T13:57:17;8.10;89.10
31038;DHT22;17702;47.590;7.666;2022-12-07T13:59:43;8.10;90.00
31038;DHT22;17702;47.590;7.666;2022-12-07T14:02:20;8.10;89.70
31038;DHT22;17702;47.590;7.666;2022-12-07T14:04:47;7.90;90.50
31038;DHT22;17702;47.590;7.666;2022-12-07T14:07:26;7.90;91.00
31038;DHT22;17702;47.590;7.666;2022-12-07T14:10:05;7.80;90.70
31038;DHT22;17702;47.590;7.666;2022-12-07T14:12:31;7.80;90.70
31038;DHT22;17702;47.590;7.666;2022-12-07T14:14:58;7.70;90.30
31038;DHT22;17702;47.590;7.666;2022-12-07T14:17:25;7.70;91.40
31038;DHT22;17702;47.590;7.666;2022-12-07T14:19:52;7.70;91.30
31038;DHT22;17702;47.590;7.666;2022-12-07T14:22:29;7.70;91.10
31038;DHT22;17702;47.590;7.666;2022-12-07T14:25:43;7.70;91.20
31038;DHT22;17702;47.590;7.666;2022-12-07T14:27:53;7.80;91.70
31038;DHT22;17702;47.590;7.666;2022-12-07T14:30:21;7.90;91.30
31038;DHT22;17702;47.590;7.666;2022-12-07T14:32:48;8.00;90.70
31038;DHT22;17702;47.590;7.666;2022-12-07T14:35:16;8.00;90.20
31038;DHT22;17702;47.590;7.666;2022-12-07T14:37:43;8.00;90.50
31038;DHT22;17702;47.590;7.666;2022-12-07T14:40:12;8.10;89.00
31038;DHT22;17702;47.590;7.666;2022-12-07T14:42:38;8.10;89.80
31038;DHT22;17702;47.590;7.666;2022-12-07T14:45:05;8.10;90.10
31038;DHT22;17702;47.590;7.666;2022-12-07T14:47:31;8.10;88.20
31038;DHT22;17702;47.590;7.666;2022-12-07T14:49:57;8.00;90.10
31038;DHT22;17702;47.590;7.666;2022-12-07T14:52:23;8.00;88.00
31038;DHT22;17702;47.590;7.666;2022-12-07T14:54:49;7.90;88.60
31038;DHT22;17702;47.590;7.666;2022-12-07T14:57:15;7.90;89.90
31038;DHT22;17702;47.590;7.666;2022-12-07T14:59:40;8.00;90.40
31038;DHT22;17702;47.590;7.666;2022-12-07T15:02:06;7.90;88.90
31038;DHT22;17702;47.590;7.666;2022-12-07T15:04:32;7.80;89.40
31038;DHT22;17702;47.590;7.666;2022-12-07T15:06:58;7.90;89.30
31038;DHT22;17702;47.590;7.666;2022-12-07T15:09:24;7.90;90.30
31038;DHT22;17702;47.590;7.666;2022-12-07T15:11:49;7.90;88.50
31038;DHT22;17702;47.590;7.666;2022-12-07T15:14:15;7.90;89.80
31038;DHT22;17702;47.590;7.666;2022-12-07T15:16:41;7.90;89.40
31038;DHT22;17702;47.590;7.666;2022-12-07T15:19:14;7.90;89.60
31038;DHT22;17702;47.590;7.666;2022-12-07T15:21:40;7.80;89.40
31038;DHT22;17702;47.590;7.666;2022-12-07T15:24:07;7.70;88.80
31038;DHT22;17702;47.590;7.666;2022-12-07T15:26:33;7.70;87.50
31038;DHT22;17702;47.590;7.666;2022-12-07T15:28:58;7.60;89.60
31038;DHT22;17702;47.590;7.666;2022-12-07T15:31:24;7.60;89.70
31038;DHT22;17702;47.590;7.666;2022-12-07T15:33:49;7.60;90.10
31038;DHT22;17702;47.590;7.666;2022-12-07T15:36:18;7.50;90.40
31038;DHT22;17702;47.590;7.666;2022-12-07T15:38:44;7.50;91.40
31038;DHT22;17702;47.590;7.666;2022-12-07T15:41:09;7.40;92.00
31038;DHT22;17702;47.590;7.666;2022-12-07T15:43:36;7.30;92.20
31038;DHT22;17702;47.590;7.666;2022-12-07T15:46:20;7.30;91.40
31038;DHT22;17702;47.590;7.666;2022-12-07T15:48:45;7.40;93.20
31038;DHT22;17702;47.590;7.666;2022-12-07T15:51:11;7.30;93.40
31038;DHT22;17702;47.590;7.666;2022-12-07T15:53:36;7.20;93.40
31038;DHT22;17702;47.590;7.666;2022-12-07T15:56:05;7.20;94.10
31038;DHT22;17702;47.590;7.666;2022-12-07T15:58:31;7.20;94.50
31038;DHT22;17702;47.590;7.666;2022-12-07T16:00:56;7.20;95.30
31038;DHT22;17702;47.590;7.666;2022-12-07T16:03:22;7.20;95.60
31038;DHT22;17702;47.590;7.666;2022-12-07T16:05:50;7.10;95.50
31038;DHT22;17702;47.590;7.666;2022-12-07T16:08:16;7.10;95.90
31038;DHT22;17702;47.590;7.666;2022-12-07T16:10:41;7.10;96.40
31038;DHT22;17702;47.590;7.666;2022-12-07T16:13:11;6.90;96.40
31038;DHT22;17702;47.590;7.666;2022-12-07T16:15:39;6.80;96.20
31038;DHT22;17702;47.590;7.666;2022-12-07T16:18:04;6.80;95.90
31038;DHT22;17702;47.590;7.666;2022-12-07T16:20:32;6.70;96.60
31038;DHT22;17702;47.590;7.666;2022-12-07T16:22:57;6.60;96.60
31038;DHT22;17702;47.590;7.666;2022-12-07T16:25:23;6.60;97.00
31038;DHT22;17702;47.590;7.666;2022-12-07T16:27:48;6.50;97.30
31038;DHT22;17702;47.590;7.666;2022-12-07T16:30:14;6.40;97.20
31038;DHT22;17702;47.590;7.666;2022-12-07T16:32:41;6.30;97.10
31038;DHT22;17702;47.590;7.666;2022-12-07T16:35:07;6.30;96.70
31038;DHT22;17702;47.590;7.666;2022-12-07T16:37:32;6.10;96.90
31038;DHT22;17702;47.590;7.666;2022-12-07T16:39:58;6.10;97.70
31038;DHT22;17702;47.590;7.666;2022-12-07T16:42:23;6.10;97.50
31038;DHT22;17702;47.590;7.666;2022-12-07T16:44:49;6.10;97.00
31038;DHT22;17702;47.590;7.666;2022-12-07T16:47:14;5.90;97.60
31038;DHT22;17702;47.590;7.666;2022-12-07T16:49:40;5.90;97.80
31038;DHT22;17702;47.590;7.666;2022-12-07T16:52:05;5.90;97.90
31038;DHT22;17702;47.590;7.666;2022-12-07T16:54:31;5.90;98.00
31038;DHT22;17702;47.590;7.666;2022-12-07T16:56:58;5.80;98.40
31038;DHT22;17702;47.590;7.666;2022-12-07T16:59:23;5.70;98.50
31038;DHT22;17702;47.590;7.666;2022-12-07T17:01:49;5.60;98.90
31038;DHT22;17702;47.590;7.666;2022-12-07T17:04:14;5.60;98.80
31038;DHT22;17702;47.590;7.666;2022-12-07T17:06:40;5.60;98.70
31038;DHT22;17702;47.590;7.666;2022-12-07T17:09:05;5.50;98.20
31038;DHT22;17702;47.590;7.666;2022-12-07T17:11:35;5.40;98.80
31038;DHT22;17702;47.590;7.666;2022-12-07T17:14:00;5.30;99.10
31038;DHT22;17702;47.590;7.666;2022-12-07T17:16:45;5.40;98.70
31038;DHT22;17702;47.590;7.666;2022-12-07T17:19:11;5.20;98.90
31038;DHT22;17702;47.590;7.666;2022-12-07T17:21:37;5.20;99.70
31038;DHT22;17702;47.590;7.666;2022-12-07T17:24:04;5.10;99.50